createdAt,value
2023-03-05T00:01:42.964Z,25.70
2023-03-05T00:06:50.184Z,25.43
2023-03-05T00:11:57.447Z,25.53
2023-03-05T00:17:04.623Z,25.30
2023-03-05T00:22:11.918Z,25.76
2023-03-05T00:27:19.086Z,25.60
2023-03-05T00:32:26.568Z,25.64
2023-03-05T00:37:33.798Z,25.48
2023-03-05T00:42:41.290Z,25.41
2023-03-05T00:47:49.100Z,25.47
2023-03-05T00:52:56.643Z,25.47
2023-03-05T00:58:04.061Z,25.53
2023-03-05T01:03:11.567Z,25.54
2023-03-05T01:08:19.187Z,25.57
2023-03-05T01:13:26.781Z,25.67
2023-03-05T01:18:34.302Z,25.69
2023-03-05T01:23:41.730Z,25.84
2023-03-05T01:28:49.082Z,25.98
2023-03-05T01:33:56.454Z,26.13
2023-03-05T01:39:03.825Z,26.28
2023-03-05T01:44:26.557Z,26.41
2023-03-05T01:49:33.939Z,26.52
2023-03-05T01:54:41.480Z,26.64
2023-03-05T01:59:48.940Z,26.71
2023-03-05T02:04:56.158Z,26.83
2023-03-05T02:10:03.467Z,26.90
2023-03-05T02:15:10.631Z,26.99
2023-03-05T02:20:17.809Z,27.01
2023-03-05T02:25:24.990Z,27.05
2023-03-05T02:30:32.162Z,27.12
2023-03-05T02:35:39.417Z,27.17
2023-03-05T02:40:46.560Z,27.25
2023-03-05T02:45:53.792Z,27.27
2023-03-05T02:51:00.880Z,27.33
2023-03-05T02:56:08.169Z,27.36
2023-03-05T03:01:15.427Z,27.41
2023-03-05T03:06:22.553Z,27.47
2023-03-05T03:11:29.858Z,27.48
2023-03-05T03:16:37.216Z,27.52
2023-03-05T03:21:44.392Z,27.50
2023-03-05T03:26:51.800Z,27.54
2023-03-05T03:31:59.149Z,27.64
2023-03-05T03:37:06.295Z,27.57
2023-03-05T03:42:13.575Z,27.63
2023-03-05T03:47:20.737Z,27.66
2023-03-05T03:52:27.946Z,27.66
2023-03-05T03:57:35.236Z,27.65
2023-03-05T04:02:42.539Z,27.78
2023-03-05T04:07:49.810Z,27.79
2023-03-05T04:12:57.173Z,27.82
2023-03-05T04:18:04.631Z,27.87
2023-03-05T04:23:12.131Z,27.88
2023-03-05T04:28:19.562Z,27.87
2023-03-05T04:33:26.945Z,27.94
2023-03-05T04:38:34.288Z,27.94
2023-03-05T04:43:41.819Z,27.95
2023-03-05T04:48:49.300Z,27.99
2023-03-05T04:53:56.801Z,28.01
2023-03-05T04:59:04.324Z,28.06
2023-03-05T05:04:12.022Z,28.06
2023-03-05T05:09:24.719Z,28.10
2023-03-05T05:14:36.975Z,28.18
2023-03-05T05:19:44.380Z,28.21
2023-03-05T05:24:54.963Z,28.24
2023-03-05T05:30:02.423Z,28.29
2023-03-05T05:35:09.892Z,28.31
2023-03-05T05:40:17.326Z,28.36
2023-03-05T05:45:25.199Z,28.35
2023-03-05T05:50:32.511Z,28.44
2023-03-05T05:55:40.026Z,28.47
2023-03-05T06:00:52.674Z,28.50
2023-03-05T06:06:05.072Z,28.57
2023-03-05T06:11:18.227Z,28.53
2023-03-05T06:16:24.755Z,28.58
2023-03-05T06:21:35.069Z,28.55
2023-03-05T06:26:43.199Z,28.56
2023-03-05T06:31:50.962Z,28.52
2023-03-05T06:36:58.394Z,28.52
2023-03-05T06:42:06.003Z,28.77
2023-03-05T06:47:13.460Z,29.00
2023-03-05T06:52:20.888Z,28.67
2023-03-05T06:57:28.245Z,28.38
2023-03-05T07:02:35.645Z,28.18
2023-03-05T07:07:42.829Z,28.00
2023-03-05T07:12:50.068Z,27.86
2023-03-05T07:17:57.266Z,27.76
2023-03-05T07:23:04.416Z,27.65
2023-03-05T07:28:11.836Z,27.51
2023-03-05T07:33:19.225Z,27.45
2023-03-05T07:38:26.380Z,27.37
2023-03-05T07:43:33.573Z,27.27
2023-03-05T07:48:40.802Z,27.18
2023-03-05T07:53:47.936Z,27.10
2023-03-05T07:58:55.144Z,27.05
2023-03-05T08:04:02.434Z,26.99
2023-03-05T08:09:09.589Z,26.92
2023-03-05T08:14:16.779Z,26.82
2023-03-05T08:19:24.108Z,26.76
2023-03-05T08:24:31.402Z,26.70
2023-03-05T08:29:38.780Z,26.66
2023-03-05T08:34:46.077Z,26.62
2023-03-05T08:39:53.464Z,26.57
2023-03-05T08:45:00.878Z,26.54
2023-03-05T08:50:08.811Z,26.47
2023-03-05T08:55:16.450Z,26.44
2023-03-05T09:00:27.025Z,26.36
2023-03-05T09:05:37.650Z,26.49
2023-03-05T09:10:46.886Z,26.39
2023-03-05T09:16:03.865Z,26.34
2023-03-05T09:21:09.050Z,26.31
2023-03-05T09:26:16.537Z,26.25
2023-03-05T09:31:30.899Z,26.22
2023-03-05T09:36:47.648Z,26.18
2023-03-05T09:41:55.355Z,26.15
2023-03-05T09:47:06.332Z,26.07
2023-03-05T09:52:11.745Z,25.70
2023-03-05T09:57:18.904Z,25.66
2023-03-05T10:02:26.091Z,26.17
2023-03-05T10:07:33.310Z,25.67
2023-03-05T10:12:40.554Z,25.64
2023-03-05T10:17:47.753Z,25.54
2023-03-05T10:22:55.182Z,25.83
2023-03-05T10:28:02.542Z,25.79
2023-03-05T10:33:09.723Z,25.69
2023-03-05T10:38:16.903Z,25.86
2023-03-05T10:43:24.103Z,25.96
2023-03-05T10:48:31.279Z,26.09
2023-03-05T10:53:38.526Z,26.25
2023-03-05T10:58:45.773Z,26.37
2023-03-05T11:03:53.307Z,26.17
2023-03-05T11:09:00.949Z,26.21
2023-03-05T11:14:08.384Z,26.15
2023-03-05T11:19:15.967Z,26.00
2023-03-05T11:24:23.290Z,25.70
2023-03-05T11:29:30.460Z,25.59
2023-03-05T11:34:37.957Z,25.54
2023-03-05T11:39:45.458Z,25.46
2023-03-05T11:44:52.652Z,25.29
2023-03-05T11:50:00.111Z,25.28
2023-03-05T11:55:07.838Z,25.34
2023-03-05T12:00:15.161Z,25.15
2023-03-05T12:05:22.337Z,25.32
2023-03-05T12:10:29.548Z,24.99
2023-03-05T12:15:36.826Z,25.20
2023-03-05T12:20:44.363Z,25.33
2023-03-05T12:25:51.313Z,25.15
2023-03-05T12:30:58.513Z,25.32
2023-03-05T12:36:05.749Z,25.18
2023-03-05T12:41:12.858Z,25.23
2023-03-05T12:46:20.172Z,25.20
2023-03-05T12:51:27.614Z,25.34
2023-03-05T12:56:34.912Z,25.33
2023-03-05T13:01:42.065Z,25.32
2023-03-05T13:06:49.503Z,24.95
2023-03-05T13:11:56.974Z,25.19
2023-03-05T13:17:04.061Z,25.06
2023-03-05T13:22:11.618Z,25.07
2023-03-05T13:27:18.961Z,25.11
2023-03-05T13:32:26.458Z,24.96
2023-03-05T13:37:34.081Z,24.67
2023-03-05T13:42:42.196Z,24.64
2023-03-05T13:47:49.597Z,24.06
2023-03-05T13:52:59.306Z,24.29
2023-03-05T13:58:04.855Z,24.86
2023-03-05T14:03:13.251Z,24.40
2023-03-05T14:08:21.267Z,24.27
2023-03-05T14:13:28.601Z,24.47
2023-03-05T14:18:35.863Z,24.36
2023-03-05T14:23:43.293Z,24.29
2023-03-05T14:28:50.982Z,24.30
2023-03-05T14:33:58.524Z,24.41
2023-03-05T14:39:06.139Z,24.60
2023-03-05T14:44:13.525Z,24.72
2023-03-05T14:49:20.965Z,24.72
2023-03-05T14:54:28.641Z,23.73
2023-03-05T14:59:35.942Z,24.51
2023-03-05T15:04:43.409Z,24.16
2023-03-05T15:09:51.019Z,24.48
2023-03-05T15:14:58.965Z,24.61
2023-03-05T15:20:06.665Z,24.78
2023-03-05T15:25:14.010Z,23.88
2023-03-05T15:30:21.564Z,24.54
2023-03-05T15:35:29.341Z,24.08
2023-03-05T15:40:36.921Z,24.41
2023-03-05T15:45:44.243Z,24.55
2023-03-05T15:50:51.756Z,24.32
2023-03-05T15:55:59.442Z,24.49
2023-03-05T16:01:07.286Z,24.46
2023-03-05T16:06:15.085Z,24.70
2023-03-05T16:11:22.805Z,24.94
2023-03-05T16:16:30.586Z,24.41
2023-03-05T16:21:37.846Z,24.68
2023-03-05T16:26:45.243Z,24.33
2023-03-05T16:31:52.877Z,24.83
2023-03-05T16:37:00.565Z,24.74
2023-03-05T16:42:08.297Z,24.76
2023-03-05T16:47:16.023Z,24.87
2023-03-05T16:52:23.718Z,24.65
2023-03-05T16:57:31.430Z,24.57
2023-03-05T17:02:39.171Z,24.52
2023-03-05T17:07:46.959Z,24.85
2023-03-05T17:12:54.747Z,24.80
2023-03-05T17:18:02.117Z,24.96
2023-03-05T17:23:09.503Z,24.67
2023-03-05T17:28:17.117Z,24.62
2023-03-05T17:33:25.940Z,24.51
2023-03-05T17:38:33.642Z,24.46
2023-03-05T17:43:41.027Z,24.43
2023-03-05T17:48:48.624Z,24.25
2023-03-05T17:53:56.312Z,24.27
2023-03-05T17:59:03.927Z,24.09
2023-03-05T18:04:11.657Z,24.07
2023-03-05T18:09:19.158Z,23.97
2023-03-05T18:14:26.550Z,24.32
2023-03-05T18:19:33.860Z,24.33
2023-03-05T18:24:41.338Z,24.38
2023-03-05T18:29:49.216Z,24.54
2023-03-05T18:34:56.848Z,24.26
2023-03-05T18:40:04.428Z,24.65
2023-03-05T18:45:12.160Z,24.96
2023-03-05T18:50:19.580Z,24.93
2023-03-05T18:55:26.833Z,24.88
2023-03-05T19:00:34.372Z,24.53
2023-03-05T19:05:42.118Z,24.97
2023-03-05T19:10:49.834Z,24.89
2023-03-05T19:15:57.433Z,25.09
2023-03-05T19:21:05.064Z,24.96
2023-03-05T19:26:12.663Z,25.09
2023-03-05T19:31:20.337Z,24.70
2023-03-05T19:36:27.915Z,24.83
2023-03-05T19:41:35.491Z,24.59
2023-03-05T19:46:43.213Z,24.45
2023-03-05T19:51:50.954Z,24.32
2023-03-05T19:56:58.652Z,24.38
2023-03-05T20:02:06.377Z,24.11
2023-03-05T20:07:14.007Z,24.08
2023-03-05T20:12:21.589Z,24.02
2023-03-05T20:17:29.321Z,23.99
2023-03-05T20:22:36.951Z,23.83
2023-03-05T20:27:44.643Z,23.96
2023-03-05T20:32:52.100Z,23.87
2023-03-05T20:37:59.399Z,23.75
2023-03-05T20:43:06.946Z,23.77
2023-03-05T20:48:14.590Z,23.74
2023-03-05T20:53:22.364Z,23.77
2023-03-05T20:58:30.132Z,23.83
2023-03-05T21:03:37.856Z,23.74
2023-03-05T21:08:45.513Z,23.65
2023-03-05T21:13:55.945Z,23.73
2023-03-05T21:19:03.660Z,23.72
2023-03-05T21:24:11.809Z,23.76
2023-03-05T21:29:20.422Z,23.66
2023-03-05T21:34:28.136Z,23.77
2023-03-05T21:39:35.524Z,23.81
2023-03-05T21:44:43.060Z,23.65
2023-03-05T21:49:50.481Z,23.62
2023-03-05T21:54:57.699Z,23.58
2023-03-05T22:00:04.939Z,23.74
2023-03-05T22:05:12.195Z,23.77
2023-03-05T22:10:19.438Z,23.64
2023-03-05T22:15:26.680Z,23.94
2023-03-05T22:20:34.194Z,23.85
2023-03-05T22:25:41.487Z,23.80
2023-03-05T22:30:48.789Z,23.78
2023-03-05T22:35:55.982Z,23.78
2023-03-05T22:41:03.205Z,23.76
2023-03-05T22:46:10.524Z,23.74
2023-03-05T22:51:17.772Z,23.77
2023-03-05T22:56:24.981Z,24.07
2023-03-05T23:01:32.164Z,24.00
2023-03-05T23:06:39.463Z,23.85
2023-03-05T23:11:46.779Z,23.79
2023-03-05T23:16:54.013Z,23.83
2023-03-05T23:22:01.335Z,23.93
2023-03-05T23:27:08.586Z,23.96
2023-03-05T23:32:15.818Z,23.93
2023-03-05T23:37:22.947Z,23.94
2023-03-05T23:42:30.168Z,23.94
2023-03-05T23:47:37.365Z,23.99
2023-03-05T23:52:44.605Z,24.00
2023-03-05T23:57:51.836Z,23.99
